Aviation Digital Data Service (ADDS)

Output produced by METARs form (2134 UTC 06 March 2015)
found at http://www.aviationweather.gov/adds/metars/
 
KWWD 062115Z AUTO 29005KT 10SM CLR M06/M13 A3049 RMK AO1